^^
Meteo Knjazevac Station Historical Data
Daily Summary for January 17, 2022 Units:  English    Metric   Both
Daily Weekly Monthly Yearly Custom
  High: Low: Average:
Temperature: 53.8 °F 52.5 °F 53 °F
Dew Point: 53.2 °F 52.2 °F 52.7 °F
Humidity: 99% 98% 99%
Wind Speed: 8.7mph 2.3mph 4.6mph
Wind Gust: 11mph - -
Wind- - SSE
Pressure: 29.73 in 29.67 in -
Precipitation: 0.10 in    
Historical Graphs
 
 
Tabular Data for January 17, 2022
Time Temperature Dew Point Pressure Wind Wind Speed Wind Gust Humidity Rainfall Rate (Hourly) solar Conditions
00:04 53.6 °F 53 °F 29.73 in South 5.8 mph 5 mph 98% 0.00 in 0 W/m2
00:09 53.4 °F 52.9 °F 29.73 in SSW 2.8 mph 8 mph 98% 0.00 in 0 W/m2
00:14 53.4 °F 52.9 °F 29.73 in SW 2.9 mph 4 mph 98% 0.00 in 0 W/m2
00:19 53.3 °F 53 °F 29.73 in WSW 3.3 mph 4 mph 98.6% 0.00 in 0 W/m2
00:24 53.4 °F 52.9 °F 29.73 in West 3.4 mph 4 mph 98.2% 0.00 in 0 W/m2
00:29 53.4 °F 52.9 °F 29.72 in WSW 3.6 mph 4 mph 98% 0.00 in 0 W/m2
00:34 53.5 °F 52.9 °F 29.73 in SSE 4.3 mph 5 mph 98% 0.01 in 0 W/m2
00:39 53.6 °F 53 °F 29.73 in SSE 4.6 mph 6 mph 98% 0.01 in 0 W/m2
00:44 53.5 °F 53 °F 29.73 in SSE 5.5 mph 6 mph 98% 0.01 in 0 W/m2
00:49 53.7 °F 53.1 °F 29.72 in SE 8 mph 8 mph 98% 0.01 in 0 W/m2
00:54 53.8 °F 53.2 °F 29.72 in SE 6.7 mph 11 mph 98% 0.01 in 0 W/m2
00:59 53.8 °F 53.2 °F 29.72 in SE 5.4 mph 7 mph 98% 0.01 in 0 W/m2
01:04 53.8 °F 53.2 °F 29.72 in SE 6.2 mph 7 mph 98% 0.01 in 0 W/m2
01:09 53.6 °F 53 °F 29.72 in SE 5.4 mph 7 mph 98% 0.01 in 0 W/m2
01:14 53.5 °F 53.1 °F 29.72 in SSE 4.6 mph 6 mph 98.7% 0.01 in 0 W/m2
01:19 53.4 °F 53.1 °F 29.72 in South 3.3 mph 7 mph 99% 0.01 in 0 W/m2
01:24 53.3 °F 53 °F 29.72 in South 3.7 mph 4 mph 99% 0.01 in 0 W/m2
01:29 53.2 °F 53 °F 29.72 in SSE 4.5 mph 5 mph 99% 0.01 in 0 W/m2
01:34 53.1 °F 52.8 °F 29.72 in South 3.2 mph 7 mph 99% 0.01 in 0 W/m2
01:39 53.1 °F 52.8 °F 29.72 in SSW 2.3 mph 4 mph 99% 0.01 in 0 W/m2
01:44 53.1 °F 52.8 °F 29.71 in SW 3.4 mph 5 mph 99% 0.00 in 0 W/m2
01:49 53 °F 52.7 °F 29.71 in SSW 4.3 mph 4 mph 99% 0.00 in 0 W/m2
01:54 53.1 °F 52.8 °F 29.71 in South 5.3 mph 5 mph 99% 0.00 in 0 W/m2
01:59 53.2 °F 52.9 °F 29.71 in South 5.1 mph 7 mph 99% 0.00 in 0 W/m2
02:04 53.1 °F 52.8 °F 29.71 in South 4.1 mph 6 mph 99% 0.00 in 0 W/m2
02:09 53.1 °F 52.8 °F 29.71 in SE 2.5 mph 6 mph 99% 0.00 in 0 W/m2
02:14 52.9 °F 52.6 °F 29.71 in North 2.6 mph 3 mph 99% 0.00 in 0 W/m2
02:19 52.9 °F 52.6 °F 29.71 in NE 4.3 mph 5 mph 99% 0.00 in 0 W/m2
02:24 52.9 °F 52.6 °F 29.71 in SSE 3.2 mph 6 mph 99% 0.00 in 0 W/m2
02:29 52.9 °F 52.6 °F 29.71 in South 3.3 mph 3 mph 99% 0.00 in 0 W/m2
02:34 52.9 °F 52.6 °F 29.70 in South 3.9 mph 4 mph 99% 0.00 in 0 W/m2
02:39 52.7 °F 52.4 °F 29.70 in SSE 3.1 mph 5 mph 99% 0.01 in 0 W/m2
02:44 52.5 °F 52.2 °F 29.70 in South 3.1 mph 4 mph 99% 0.01 in 0 W/m2
02:49 52.5 °F 52.2 °F 29.70 in South 4.2 mph 5 mph 99% 0.01 in 0 W/m2
02:54 52.7 °F 52.4 °F 29.70 in South 4.2 mph 6 mph 99% 0.02 in 0 W/m2
02:59 53 °F 52.7 °F 29.70 in South 5.6 mph 5 mph 99% 0.02 in 0 W/m2
03:04 53.1 °F 52.8 °F 29.70 in SSE 5.2 mph 8 mph 99% 0.02 in 0 W/m2
03:09 53.1 °F 52.8 °F 29.70 in SSE 6.5 mph 6 mph 99% 0.02 in 0 W/m2
03:14 53.1 °F 52.8 °F 29.70 in SE 5.2 mph 8 mph 99% 0.02 in 0 W/m2
03:19 52.9 °F 52.6 °F 29.69 in SE 4.1 mph 6 mph 99% 0.02 in 0 W/m2
03:24 52.9 °F 52.6 °F 29.69 in SE 4.8 mph 6 mph 99% 0.02 in 0 W/m2
03:29 52.9 °F 52.6 °F 29.69 in SE 5.3 mph 7 mph 99% 0.02 in 0 W/m2
03:34 53.1 °F 52.8 °F 29.69 in SSE 3.9 mph 6 mph 99% 0.01 in 0 W/m2
03:39 53.1 °F 52.8 °F 29.69 in SSE 3.6 mph 6 mph 99% 0.01 in 0 W/m2
03:44 52.9 °F 52.6 °F 29.69 in South 3.4 mph 5 mph 99% 0.01 in 0 W/m2
03:49 52.8 °F 52.5 °F 29.69 in South 2.6 mph 4 mph 99% 0.01 in 0 W/m2
03:54 52.6 °F 52.3 °F 29.68 in SE 3.2 mph 3 mph 99% 0.00 in 0 W/m2
03:59 52.6 °F 52.3 °F 29.68 in ESE 5.7 mph 4.9 mph 99% 0.00 in 0 W/m2
04:04 52.7 °F 52.4 °F 29.68 in SE 5.9 mph 8 mph 99% 0.00 in 0 W/m2
04:09 52.7 °F 52.4 °F 29.68 in SE 5.2 mph 7 mph 99% 0.00 in 0 W/m2
04:14 52.8 °F 52.5 °F 29.68 in SSE 4.8 mph 6 mph 99% 0.00 in 0 W/m2
04:19 52.9 °F 52.6 °F 29.68 in SSE 4.5 mph 6 mph 99% 0.01 in 0 W/m2
04:24 52.8 °F 52.5 °F 29.68 in SSE 5.5 mph 5 mph 99% 0.01 in 0 W/m2
04:29 52.7 °F 52.4 °F 29.68 in SE 8.1 mph 7 mph 99% 0.01 in 0 W/m2
04:34 52.9 °F 52.6 °F 29.68 in SE 8.7 mph 9 mph 99% 0.01 in 0 W/m2
04:39 52.9 °F 52.6 °F 29.68 in SE 6.9 mph 10 mph 99% 0.01 in 0 W/m2
04:44 52.9 °F 52.6 °F 29.68 in SE 5.8 mph 8 mph 99% 0.01 in 0 W/m2
04:49 52.9 °F 52.6 °F 29.68 in SE 6.5 mph 7 mph 99% 0.01 in 0 W/m2
04:54 53.1 °F 52.9 °F 29.68 in SE 8.4 mph 9 mph 99% 0.01 in 0 W/m2
04:59 53.2 °F 53 °F 29.67 in SE 5.4 mph 9 mph 99% 0.01 in 0 W/m2
05:04 53.2 °F 53 °F 29.67 in South 4.7 mph 6 mph 99% 0.01 in 0 W/m2
05:09 53.1 °F 52.8 °F 29.68 in South 4.6 mph 6 mph 99% 0.02 in 0 W/m2
05:14 53 °F 52.7 °F 29.68 in South 4.1 mph 5 mph 99% 0.02 in 0 W/m2
05:19 52.9 °F 52.6 °F 29.68 in South 3.3 mph 6 mph 99% 0.01 in 0 W/m2
05:24 52.9 °F 52.6 °F 29.68 in SSW 2.7 mph 4 mph 99% 0.01 in 0 W/m2
05:29 52.8 °F 52.5 °F 29.68 in WSW 3.4 mph 3 mph 99% 0.01 in 0 W/m2
05:34 52.8 °F 52.5 °F 29.68 in SSW 5.4 mph 5 mph 99% 0.01 in 0 W/m2
05:39 52.9 °F 52.6 °F 29.68 in SE 4.9 mph 6 mph 99% 0.01 in 0 W/m2
05:44 52.9 °F 52.6 °F 29.68 in SE 7.3 mph 6 mph 99% 0.01 in 0 W/m2
05:49 52.9 °F 52.6 °F 29.68 in SE 5.4 mph 8 mph 99% 0.02 in 0 W/m2
05:54 52.9 °F 52.6 °F 29.68 in SSE 2.7 mph 6 mph 99% 0.02 in 0 W/m2
05:59 52.8 °F 52.5 °F 29.68 in SSE 3.9 mph 3.4 mph 99% 0.03 in 0 W/m2
06:04 52.7 °F 52.4 °F 29.69 in SSE 3 mph 5 mph 99% 0.04 in 0 W/m2
06:09 52.7 °F 52.4 °F 29.70 in South 2.8 mph 4 mph 99% 0.05 in 0 W/m2
06:14 52.5 °F 52.2 °F 29.70 in WSW 7.6 mph 6.7 mph 99% 0.05 in 0 W/m2
Knjazevac, Serbia
Compliments of Weather Underground - 2 mb